• Join FlightAware (Why Join?)
  • Login
  • US Flag 
06:41PM EST


 

Airport Tracker/Info


-or-


 

Live Flight TrackerFlight Track Log ✈ EJA922 ✈ 28-Oct-2013 ✈ KTEB - KBED

Flight Track Log - Related Links

Times and Time Zones

All times are in EDT time to prevent confusion due to time zone crossing. See the EJA922 flight status page for this flight to view local times or setup timezone preferences in your user account.

Time Position Orientation Groundspeed Altitude Reporting Facility
EDT Latitude Longitude Course Direction KTS MPH feet Rate Location/Type
04:22PM 40.8167 -74.1333 252° West 187 215 1,600  Level New York TRACON
04:23PM 40.8000 -74.2000 252° West 199 229 4,300 2,100 Climbing New York TRACON
04:24PM 40.8500 -74.2333 333° Northwest 228 262 6,100 900 Climbing New York TRACON
04:25PM 40.9333 -74.2000 17° North 261 300 6,100  Level New York TRACON
04:26PM 41.0000 -74.1833 11° North 262 302 6,100  Level New York TRACON
04:27PM 41.0500 -74.1667 14° North 260 299 6,100 60 Level New York TRACON
04:29PM 41.1389 -74.0547 43° Northeast 263 303 6,400 480 Climbing Boston Center
04:30PM 41.1703 -73.9517 68° East 280 322 7,500 2,220 Climbing Boston Center
04:31PM 41.2017 -73.8472 68° East 303 349 11,100 2,940 Climbing Boston Center
04:32PM 41.2403 -73.7203 68° East 369 425 13,500 1,860 Climbing Boston Center
04:33PM 41.2850 -73.5658 69° East 415 478 15,000 720 Climbing Boston Center
04:34PM 41.3233 -73.4053 72° East 451 519 15,000  Level Boston Center
04:35PM 41.3828 -73.2494 63° Northeast 450 518 15,000  Level Boston Center
04:36PM 41.4378 -73.1006 64° Northeast 450 518 15,000  Level Boston Center
04:37PM 41.4931 -72.9514 64° Northeast 449 517 15,000  Level Boston Center
04:38PM 41.5528 -72.7903 64° Northeast 451 519 15,000  Level Boston Center
04:39PM 41.6161 -72.6489 59° Northeast 448 516 15,000  Level Boston Center
04:40PM 41.7008 -72.5306 46° Northeast 442 509 15,000 -240 Level Boston Center
04:40PM 41.7347 -72.4828 46° Northeast 441 507 14,700 -1,980 Descending Boston Center
04:41PM 41.7908 -72.4053 46° Northeast 437 503 13,000 -2,460 Descending Boston Center
04:41PM 41.8028 -72.3889 46° Northeast 436 502 12,700 -1,920 Descending Boston Center
04:42PM 41.8731 -72.2906 46° Northeast 429 494 11,000 -2,040 Descending Boston Center
04:42PM 41.8797 -72.2833 39° Northeast 418 481 10,900 -840 Descending Boston Center
04:43PM 41.9517 -72.2019 40° Northeast 355 409 10,200 -780 Descending Boston Center
04:43PM 41.9519 -72.2006 75° East 370 426 10,200 -1,140 Level Boston Center
04:44PM 42.0225 -72.1217 40° Northeast 307 353 9,000 -1,140 Descending Boston Center
04:44PM 42.0292 -72.1136 42° Northeast 289 333 8,900 -900 Descending Boston Center
04:45PM 42.0833 -72.0522 40° Northeast 290 334 8,100 -1,020 Descending Boston Center
04:45PM 42.0925 -72.0433 36° Northeast 288 331 7,900 -1,080 Descending Boston Center
04:46PM 42.1425 -71.9889 39° Northeast 272 313 7,000 -1,020 Descending Boston Center
04:46PM 42.1500 -71.9794 43° Northeast 256 295 6,900 -1,020 Descending Boston Center
04:47PM 42.1967 -71.9286 39° Northeast 253 291 6,000 -1,020 Descending Boston Center
04:47PM 42.2044 -71.9203 38° Northeast 252 290 5,900 -840 Descending Boston Center
04:48PM 42.2553 -71.8625 40° Northeast 259 298 5,200 -480 Descending Boston Center
04:49PM 42.3119 -71.8031 38° Northeast 259 298 5,000 -120 Descending Boston Center
04:50PM 42.3697 -71.7361 41° Northeast 263 303 5,000 -180 Level Boston Center
04:51PM 42.4167 -71.6167 62° Northeast 277 319 4,700 -720 Descending KA90
04:52PM 42.4667 -71.5333 51° Northeast 259 298 3,400 -1,320 Descending KA90
04:53PM 42.5000 -71.4667 56° Northeast 235 270 2,100 -900 Descending KA90
04:54PM 42.5000 -71.3833 90° East 218 251 1,700 -240 Descending KA90
04:55PM 42.5000 -71.3000 90° East 195 224 1,700 -60 Level KA90
04:56PM 42.5000 -71.2333 90° East 176 203 1,600 -540 Descending KA90
04:58PM 42.4686 -71.2739 224° Southwest 110 127 300 -720 Descending Boston Center
05:00PM 42.4667 -71.2833 270° West  Level FlightAware Approximate